Barrett, Minnesota
Current Conditions -  °F | °C
As of 7:15 AM on Friday 24 Oct 2014 (Local Time) from KY63 Reporting Station
Clear Clear  
Wind Chill: 41°   Ceiling: Unl
Heat Index: 44°   Visibility: 7mi
Dew Point: 42°   Wind: 6mph
Humidity: 92%   Direction: 150°SSE
Pressure: 29.82"   Gusts: NA
Location:  45.91°N, 95.89°W
Report Text: KY63 241215Z AUTO 15005KT 7SM CLR 07/05 A2982 RMK AO2 T00660054
Loading
Personal Weather Stations






























Interactive Weather Map
Tropical Storm Tracking
New forecast layout! Learn more

10-Day Weather Forecast

Advertisements
Track Severe Weather on mobile